sensor_id;sensor_type;location;lat;lon;timestamp;P1;durP1;ratioP1;P2;durP2;ratioP2
34489;SDS011;20730;49.372;7.324;2023-06-26T00:01:09;6.72;;;5.40;;
34489;SDS011;20730;49.372;7.324;2023-06-26T00:03:37;7.00;;;5.50;;
34489;SDS011;20730;49.372;7.324;2023-06-26T00:06:03;5.57;;;5.05;;
34489;SDS011;20730;49.372;7.324;2023-06-26T00:08:30;7.60;;;5.60;;
34489;SDS011;20730;49.372;7.324;2023-06-26T00:10:57;6.97;;;5.68;;
34489;SDS011;20730;49.372;7.324;2023-06-26T00:13:25;6.38;;;5.50;;
34489;SDS011;20730;49.372;7.324;2023-06-26T00:15:52;7.00;;;5.35;;
34489;SDS011;20730;49.372;7.324;2023-06-26T00:18:18;5.85;;;5.10;;
34489;SDS011;20730;49.372;7.324;2023-06-26T00:20:45;6.00;;;5.40;;
34489;SDS011;20730;49.372;7.324;2023-06-26T00:23:12;8.23;;;5.68;;
34489;SDS011;20730;49.372;7.324;2023-06-26T00:25:43;6.20;;;5.13;;
34489;SDS011;20730;49.372;7.324;2023-06-26T00:28:10;7.18;;;5.72;;
34489;SDS011;20730;49.372;7.324;2023-06-26T00:30:37;7.03;;;5.93;;
34489;SDS011;20730;49.372;7.324;2023-06-26T00:33:07;6.05;;;5.28;;
34489;SDS011;20730;49.372;7.324;2023-06-26T00:35:34;5.78;;;5.18;;
34489;SDS011;20730;49.372;7.324;2023-06-26T00:38:03;6.03;;;4.97;;
34489;SDS011;20730;49.372;7.324;2023-06-26T00:40:30;10.00;;;5.30;;
34489;SDS011;20730;49.372;7.324;2023-06-26T00:42:57;6.57;;;5.38;;
34489;SDS011;20730;49.372;7.324;2023-06-26T00:45:24;7.15;;;5.47;;
34489;SDS011;20730;49.372;7.324;2023-06-26T00:48:09;6.45;;;5.50;;
34489;SDS011;20730;49.372;7.324;2023-06-26T00:50:40;7.55;;;5.50;;
34489;SDS011;20730;49.372;7.324;2023-06-26T00:53:11;8.55;;;6.28;;
34489;SDS011;20730;49.372;7.324;2023-06-26T00:55:38;7.47;;;6.30;;
34489;SDS011;20730;49.372;7.324;2023-06-26T00:58:06;7.85;;;5.80;;
34489;SDS011;20730;49.372;7.324;2023-06-26T01:00:33;9.10;;;6.80;;
34489;SDS011;20730;49.372;7.324;2023-06-26T01:05:35;6.80;;;5.85;;
34489;SDS011;20730;49.372;7.324;2023-06-26T01:08:02;7.38;;;6.30;;
34489;SDS011;20730;49.372;7.324;2023-06-26T01:10:30;6.07;;;5.47;;
34489;SDS011;20730;49.372;7.324;2023-06-26T01:12:59;6.65;;;5.95;;
34489;SDS011;20730;49.372;7.324;2023-06-26T01:15:28;7.72;;;5.80;;
34489;SDS011;20730;49.372;7.324;2023-06-26T01:17:56;8.55;;;6.38;;
34489;SDS011;20730;49.372;7.324;2023-06-26T01:20:27;8.15;;;6.03;;
34489;SDS011;20730;49.372;7.324;2023-06-26T01:25:49;7.60;;;5.68;;
34489;SDS011;20730;49.372;7.324;2023-06-26T01:28:19;7.75;;;6.25;;
34489;SDS011;20730;49.372;7.324;2023-06-26T01:30:46;7.28;;;6.22;;
34489;SDS011;20730;49.372;7.324;2023-06-26T01:33:15;6.93;;;6.20;;
34489;SDS011;20730;49.372;7.324;2023-06-26T01:35:42;7.85;;;6.40;;
34489;SDS011;20730;49.372;7.324;2023-06-26T01:38:13;7.75;;;6.30;;
34489;SDS011;20730;49.372;7.324;2023-06-26T01:40:44;8.77;;;6.20;;
34489;SDS011;20730;49.372;7.324;2023-06-26T01:46:12;9.25;;;5.93;;
34489;SDS011;20730;49.372;7.324;2023-06-26T01:51:25;6.50;;;5.70;;
34489;SDS011;20730;49.372;7.324;2023-06-26T01:54:01;6.75;;;5.82;;
34489;SDS011;20730;49.372;7.324;2023-06-26T01:56:29;6.90;;;6.10;;
34489;SDS011;20730;49.372;7.324;2023-06-26T01:58:59;10.63;;;6.47;;
34489;SDS011;20730;49.372;7.324;2023-06-26T02:01:27;8.85;;;6.20;;
34489;SDS011;20730;49.372;7.324;2023-06-26T02:03:54;8.60;;;6.53;;
34489;SDS011;20730;49.372;7.324;2023-06-26T02:06:22;9.98;;;5.95;;
34489;SDS011;20730;49.372;7.324;2023-06-26T02:08:50;6.38;;;5.63;;
34489;SDS011;20730;49.372;7.324;2023-06-26T02:11:17;7.15;;;5.68;;
34489;SDS011;20730;49.372;7.324;2023-06-26T02:13:45;7.93;;;6.35;;
34489;SDS011;20730;49.372;7.324;2023-06-26T02:16:12;8.45;;;6.10;;
34489;SDS011;20730;49.372;7.324;2023-06-26T02:18:42;7.68;;;6.18;;
34489;SDS011;20730;49.372;7.324;2023-06-26T02:21:09;8.82;;;5.75;;
34489;SDS011;20730;49.372;7.324;2023-06-26T02:23:36;7.43;;;6.10;;
34489;SDS011;20730;49.372;7.324;2023-06-26T02:26:04;6.80;;;5.63;;
34489;SDS011;20730;49.372;7.324;2023-06-26T02:28:32;6.60;;;5.78;;
34489;SDS011;20730;49.372;7.324;2023-06-26T02:31:00;9.18;;;5.97;;
34489;SDS011;20730;49.372;7.324;2023-06-26T02:33:27;7.57;;;6.03;;
34489;SDS011;20730;49.372;7.324;2023-06-26T02:35:55;6.85;;;5.78;;
34489;SDS011;20730;49.372;7.324;2023-06-26T02:38:22;7.07;;;5.78;;
34489;SDS011;20730;49.372;7.324;2023-06-26T02:40:49;7.70;;;6.13;;
34489;SDS011;20730;49.372;7.324;2023-06-26T02:43:16;7.10;;;5.88;;
34489;SDS011;20730;49.372;7.324;2023-06-26T02:45:44;7.60;;;6.35;;
34489;SDS011;20730;49.372;7.324;2023-06-26T02:48:11;7.22;;;6.00;;
34489;SDS011;20730;49.372;7.324;2023-06-26T02:50:41;7.03;;;6.03;;
34489;SDS011;20730;49.372;7.324;2023-06-26T02:53:12;7.28;;;5.95;;
34489;SDS011;20730;49.372;7.324;2023-06-26T02:55:43;8.02;;;6.50;;
34489;SDS011;20730;49.372;7.324;2023-06-26T02:58:11;7.30;;;6.00;;
34489;SDS011;20730;49.372;7.324;2023-06-26T03:00:38;6.93;;;6.05;;
34489;SDS011;20730;49.372;7.324;2023-06-26T03:03:12;8.10;;;6.22;;
34489;SDS011;20730;49.372;7.324;2023-06-26T03:05:40;8.60;;;5.80;;
34489;SDS011;20730;49.372;7.324;2023-06-26T03:08:07;7.75;;;6.72;;
34489;SDS011;20730;49.372;7.324;2023-06-26T03:10:35;8.45;;;5.85;;
34489;SDS011;20730;49.372;7.324;2023-06-26T03:13:02;10.43;;;6.40;;
34489;SDS011;20730;49.372;7.324;2023-06-26T03:15:29;10.38;;;6.22;;
34489;SDS011;20730;49.372;7.324;2023-06-26T03:17:57;9.20;;;6.65;;
34489;SDS011;20730;49.372;7.324;2023-06-26T03:20:28;10.20;;;6.10;;
34489;SDS011;20730;49.372;7.324;2023-06-26T03:22:57;6.80;;;5.68;;
34489;SDS011;20730;49.372;7.324;2023-06-26T03:25:24;8.23;;;5.90;;
34489;SDS011;20730;49.372;7.324;2023-06-26T03:28:12;7.95;;;6.45;;
34489;SDS011;20730;49.372;7.324;2023-06-26T03:30:39;7.93;;;6.35;;
34489;SDS011;20730;49.372;7.324;2023-06-26T03:33:07;8.07;;;6.50;;
34489;SDS011;20730;49.372;7.324;2023-06-26T03:35:36;8.85;;;6.30;;
34489;SDS011;20730;49.372;7.324;2023-06-26T03:38:04;8.38;;;6.35;;
34489;SDS011;20730;49.372;7.324;2023-06-26T03:40:33;7.35;;;6.20;;
34489;SDS011;20730;49.372;7.324;2023-06-26T03:43:00;7.57;;;6.25;;
34489;SDS011;20730;49.372;7.324;2023-06-26T03:45:32;9.52;;;6.75;;
34489;SDS011;20730;49.372;7.324;2023-06-26T03:47:59;8.30;;;6.10;;
34489;SDS011;20730;49.372;7.324;2023-06-26T03:50:27;10.02;;;6.47;;
34489;SDS011;20730;49.372;7.324;2023-06-26T03:52:56;8.52;;;6.40;;
34489;SDS011;20730;49.372;7.324;2023-06-26T03:55:24;10.68;;;6.47;;
34489;SDS011;20730;49.372;7.324;2023-06-26T03:57:51;7.28;;;5.85;;
34489;SDS011;20730;49.372;7.324;2023-06-26T04:00:19;8.75;;;5.88;;
34489;SDS011;20730;49.372;7.324;2023-06-26T04:02:47;7.75;;;6.82;;
34489;SDS011;20730;49.372;7.324;2023-06-26T04:05:14;6.40;;;5.80;;
34489;SDS011;20730;49.372;7.324;2023-06-26T04:07:41;7.88;;;6.15;;
34489;SDS011;20730;49.372;7.324;2023-06-26T04:10:09;7.00;;;6.30;;
34489;SDS011;20730;49.372;7.324;2023-06-26T04:12:36;7.00;;;6.00;;
34489;SDS011;20730;49.372;7.324;2023-06-26T04:15:03;9.82;;;6.00;;
34489;SDS011;20730;49.372;7.324;2023-06-26T04:17:30;7.95;;;6.35;;
34489;SDS011;20730;49.372;7.324;2023-06-26T04:19:57;6.82;;;6.13;;
34489;SDS011;20730;49.372;7.324;2023-06-26T04:22:25;8.30;;;5.88;;
34489;SDS011;20730;49.372;7.324;2023-06-26T04:24:54;7.55;;;6.15;;
34489;SDS011;20730;49.372;7.324;2023-06-26T04:27:21;7.30;;;6.40;;
34489;SDS011;20730;49.372;7.324;2023-06-26T04:29:49;7.90;;;5.90;;
34489;SDS011;20730;49.372;7.324;2023-06-26T04:32:16;6.63;;;5.93;;
34489;SDS011;20730;49.372;7.324;2023-06-26T04:34:44;7.43;;;6.55;;
34489;SDS011;20730;49.372;7.324;2023-06-26T04:37:11;8.10;;;5.95;;
34489;SDS011;20730;49.372;7.324;2023-06-26T04:39:42;6.90;;;6.15;;
34489;SDS011;20730;49.372;7.324;2023-06-26T04:42:10;7.90;;;6.35;;
34489;SDS011;20730;49.372;7.324;2023-06-26T04:44:39;8.13;;;6.20;;
34489;SDS011;20730;49.372;7.324;2023-06-26T04:47:08;7.88;;;6.80;;
34489;SDS011;20730;49.372;7.324;2023-06-26T04:49:36;7.40;;;6.60;;
34489;SDS011;20730;49.372;7.324;2023-06-26T04:52:05;7.22;;;6.20;;
34489;SDS011;20730;49.372;7.324;2023-06-26T04:54:32;6.72;;;6.03;;
34489;SDS011;20730;49.372;7.324;2023-06-26T04:56:59;8.77;;;6.30;;
34489;SDS011;20730;49.372;7.324;2023-06-26T04:59:26;7.32;;;5.78;;
34489;SDS011;20730;49.372;7.324;2023-06-26T05:01:54;7.22;;;6.28;;
34489;SDS011;20730;49.372;7.324;2023-06-26T05:04:22;8.35;;;6.70;;
34489;SDS011;20730;49.372;7.324;2023-06-26T05:06:51;7.30;;;5.90;;
34489;SDS011;20730;49.372;7.324;2023-06-26T05:09:18;11.45;;;6.32;;
34489;SDS011;20730;49.372;7.324;2023-06-26T05:11:45;7.00;;;6.30;;
34489;SDS011;20730;49.372;7.324;2023-06-26T05:14:12;8.38;;;6.20;;
34489;SDS011;20730;49.372;7.324;2023-06-26T05:16:40;8.40;;;6.28;;
34489;SDS011;20730;49.372;7.324;2023-06-26T05:19:07;7.22;;;6.22;;
34489;SDS011;20730;49.372;7.324;2023-06-26T05:21:35;7.05;;;6.35;;
34489;SDS011;20730;49.372;7.324;2023-06-26T05:24:03;9.00;;;6.40;;
34489;SDS011;20730;49.372;7.324;2023-06-26T05:26:31;7.32;;;6.53;;
34489;SDS011;20730;49.372;7.324;2023-06-26T05:28:58;7.35;;;6.55;;
34489;SDS011;20730;49.372;7.324;2023-06-26T05:31:26;6.85;;;6.15;;
34489;SDS011;20730;49.372;7.324;2023-06-26T05:33:55;9.77;;;6.68;;
34489;SDS011;20730;49.372;7.324;2023-06-26T05:36:23;7.32;;;6.60;;
34489;SDS011;20730;49.372;7.324;2023-06-26T05:38:51;7.88;;;6.60;;
34489;SDS011;20730;49.372;7.324;2023-06-26T05:41:19;7.15;;;6.43;;
34489;SDS011;20730;49.372;7.324;2023-06-26T05:43:46;8.57;;;6.00;;
34489;SDS011;20730;49.372;7.324;2023-06-26T05:46:14;7.57;;;6.20;;
34489;SDS011;20730;49.372;7.324;2023-06-26T05:48:42;7.90;;;6.32;;
34489;SDS011;20730;49.372;7.324;2023-06-26T05:51:09;6.65;;;5.95;;
34489;SDS011;20730;49.372;7.324;2023-06-26T05:53:37;8.00;;;5.68;;
34489;SDS011;20730;49.372;7.324;2023-06-26T05:56:05;8.20;;;6.15;;
34489;SDS011;20730;49.372;7.324;2023-06-26T05:58:32;7.38;;;6.13;;
34489;SDS011;20730;49.372;7.324;2023-06-26T06:01:00;6.40;;;5.80;;
34489;SDS011;20730;49.372;7.324;2023-06-26T06:03:27;7.82;;;6.32;;
34489;SDS011;20730;49.372;7.324;2023-06-26T06:05:56;7.28;;;6.40;;
34489;SDS011;20730;49.372;7.324;2023-06-26T06:08:24;8.02;;;6.13;;
34489;SDS011;20730;49.372;7.324;2023-06-26T06:10:52;8.20;;;6.10;;
34489;SDS011;20730;49.372;7.324;2023-06-26T06:13:20;6.65;;;6.00;;
34489;SDS011;20730;49.372;7.324;2023-06-26T06:15:47;6.97;;;6.28;;
34489;SDS011;20730;49.372;7.324;2023-06-26T06:18:15;8.27;;;6.57;;
34489;SDS011;20730;49.372;7.324;2023-06-26T06:20:44;7.07;;;6.38;;
34489;SDS011;20730;49.372;7.324;2023-06-26T06:23:11;7.60;;;6.25;;
34489;SDS011;20730;49.372;7.324;2023-06-26T06:25:38;7.45;;;6.07;;
34489;SDS011;20730;49.372;7.324;2023-06-26T06:28:05;8.65;;;6.70;;
34489;SDS011;20730;49.372;7.324;2023-06-26T06:30:33;6.93;;;5.97;;
34489;SDS011;20730;49.372;7.324;2023-06-26T06:33:13;7.43;;;6.27;;
34489;SDS011;20730;49.372;7.324;2023-06-26T06:35:40;7.57;;;6.70;;
34489;SDS011;20730;49.372;7.324;2023-06-26T06:38:07;7.70;;;6.32;;
34489;SDS011;20730;49.372;7.324;2023-06-26T06:40:34;8.30;;;7.20;;
34489;SDS011;20730;49.372;7.324;2023-06-26T06:43:02;9.75;;;6.93;;
34489;SDS011;20730;49.372;7.324;2023-06-26T06:45:30;9.70;;;6.82;;
34489;SDS011;20730;49.372;7.324;2023-06-26T06:47:58;8.45;;;7.00;;
34489;SDS011;20730;49.372;7.324;2023-06-26T06:50:26;10.05;;;7.07;;
34489;SDS011;20730;49.372;7.324;2023-06-26T06:52:53;9.07;;;7.10;;
34489;SDS011;20730;49.372;7.324;2023-06-26T06:55:21;8.07;;;6.93;;
34489;SDS011;20730;49.372;7.324;2023-06-26T06:57:48;10.63;;;7.13;;
34489;SDS011;20730;49.372;7.324;2023-06-26T07:00:16;10.07;;;7.13;;
34489;SDS011;20730;49.372;7.324;2023-06-26T07:02:44;9.75;;;6.93;;
34489;SDS011;20730;49.372;7.324;2023-06-26T07:05:13;12.05;;;7.10;;
34489;SDS011;20730;49.372;7.324;2023-06-26T07:07:40;9.60;;;6.93;;
34489;SDS011;20730;49.372;7.324;2023-06-26T07:10:08;8.60;;;6.82;;
34489;SDS011;20730;49.372;7.324;2023-06-26T07:12:37;10.25;;;7.00;;
34489;SDS011;20730;49.372;7.324;2023-06-26T07:15:06;14.95;;;7.18;;
34489;SDS011;20730;49.372;7.324;2023-06-26T07:17:34;8.90;;;6.78;;
34489;SDS011;20730;49.372;7.324;2023-06-26T07:20:02;8.07;;;6.78;;
34489;SDS011;20730;49.372;7.324;2023-06-26T07:22:36;8.15;;;6.78;;
34489;SDS011;20730;49.372;7.324;2023-06-26T07:25:04;10.32;;;6.85;;
34489;SDS011;20730;49.372;7.324;2023-06-26T07:27:36;15.73;;;6.70;;
34489;SDS011;20730;49.372;7.324;2023-06-26T07:30:04;10.70;;;6.53;;
34489;SDS011;20730;49.372;7.324;2023-06-26T07:32:32;8.55;;;6.90;;
34489;SDS011;20730;49.372;7.324;2023-06-26T07:34:59;9.65;;;6.88;;
34489;SDS011;20730;49.372;7.324;2023-06-26T07:37:27;8.93;;;6.75;;
34489;SDS011;20730;49.372;7.324;2023-06-26T07:39:55;8.75;;;6.88;;
34489;SDS011;20730;49.372;7.324;2023-06-26T07:42:25;7.65;;;6.57;;
34489;SDS011;20730;49.372;7.324;2023-06-26T07:44:52;7.72;;;6.60;;
34489;SDS011;20730;49.372;7.324;2023-06-26T07:47:20;9.68;;;6.90;;
34489;SDS011;20730;49.372;7.324;2023-06-26T07:49:47;10.40;;;6.60;;
34489;SDS011;20730;49.372;7.324;2023-06-26T07:52:15;9.00;;;6.85;;
34489;SDS011;20730;49.372;7.324;2023-06-26T07:54:42;9.60;;;6.10;;
34489;SDS011;20730;49.372;7.324;2023-06-26T07:57:12;8.43;;;6.30;;
34489;SDS011;20730;49.372;7.324;2023-06-26T07:59:39;7.47;;;6.25;;
34489;SDS011;20730;49.372;7.324;2023-06-26T08:02:07;10.45;;;6.25;;
34489;SDS011;20730;49.372;7.324;2023-06-26T08:04:34;7.50;;;5.88;;
34489;SDS011;20730;49.372;7.324;2023-06-26T08:07:02;7.55;;;5.22;;
34489;SDS011;20730;49.372;7.324;2023-06-26T08:09:30;9.23;;;5.57;;
34489;SDS011;20730;49.372;7.324;2023-06-26T08:11:58;5.90;;;5.30;;
34489;SDS011;20730;49.372;7.324;2023-06-26T08:14:26;8.70;;;4.78;;
34489;SDS011;20730;49.372;7.324;2023-06-26T08:16:53;9.52;;;5.35;;
34489;SDS011;20730;49.372;7.324;2023-06-26T08:19:21;5.70;;;4.95;;
34489;SDS011;20730;49.372;7.324;2023-06-26T08:21:48;9.52;;;5.00;;
34489;SDS011;20730;49.372;7.324;2023-06-26T08:24:16;5.65;;;4.70;;
34489;SDS011;20730;49.372;7.324;2023-06-26T08:26:45;4.68;;;4.25;;
34489;SDS011;20730;49.372;7.324;2023-06-26T08:29:13;5.55;;;3.97;;
34489;SDS011;20730;49.372;7.324;2023-06-26T08:31:41;4.60;;;4.10;;
34489;SDS011;20730;49.372;7.324;2023-06-26T08:34:09;11.63;;;4.43;;
34489;SDS011;20730;49.372;7.324;2023-06-26T08:36:36;4.80;;;4.00;;
34489;SDS011;20730;49.372;7.324;2023-06-26T08:39:03;5.43;;;3.72;;
34489;SDS011;20730;49.372;7.324;2023-06-26T08:41:32;5.28;;;4.03;;
34489;SDS011;20730;49.372;7.324;2023-06-26T08:43:59;4.88;;;3.80;;
34489;SDS011;20730;49.372;7.324;2023-06-26T08:46:28;5.50;;;3.60;;
34489;SDS011;20730;49.372;7.324;2023-06-26T08:48:56;5.05;;;3.70;;
34489;SDS011;20730;49.372;7.324;2023-06-26T08:51:25;4.35;;;3.85;;
34489;SDS011;20730;49.372;7.324;2023-06-26T08:53:56;6.07;;;3.85;;
34489;SDS011;20730;49.372;7.324;2023-06-26T08:56:32;5.28;;;3.50;;
34489;SDS011;20730;49.372;7.324;2023-06-26T08:59:00;4.32;;;3.85;;
34489;SDS011;20730;49.372;7.324;2023-06-26T09:01:28;5.00;;;3.90;;
34489;SDS011;20730;49.372;7.324;2023-06-26T09:03:55;7.70;;;4.28;;
34489;SDS011;20730;49.372;7.324;2023-06-26T09:06:23;5.80;;;3.67;;
34489;SDS011;20730;49.372;7.324;2023-06-26T09:08:51;5.05;;;3.92;;
34489;SDS011;20730;49.372;7.324;2023-06-26T09:11:19;5.68;;;3.90;;
34489;SDS011;20730;49.372;7.324;2023-06-26T09:13:46;5.65;;;4.10;;
34489;SDS011;20730;49.372;7.324;2023-06-26T09:16:14;5.47;;;4.65;;
34489;SDS011;20730;49.372;7.324;2023-06-26T09:18:42;4.72;;;4.28;;
34489;SDS011;20730;49.372;7.324;2023-06-26T09:21:11;5.97;;;3.80;;
34489;SDS011;20730;49.372;7.324;2023-06-26T09:23:39;7.85;;;4.60;;
34489;SDS011;20730;49.372;7.324;2023-06-26T09:26:08;5.40;;;3.47;;
34489;SDS011;20730;49.372;7.324;2023-06-26T09:28:35;6.95;;;3.75;;
34489;SDS011;20730;49.372;7.324;2023-06-26T09:31:03;3.88;;;3.47;;
34489;SDS011;20730;49.372;7.324;2023-06-26T09:33:35;5.40;;;3.55;;
34489;SDS011;20730;49.372;7.324;2023-06-26T09:36:18;6.45;;;4.13;;
34489;SDS011;20730;49.372;7.324;2023-06-26T09:38:47;5.55;;;3.80;;
34489;SDS011;20730;49.372;7.324;2023-06-26T09:41:18;9.32;;;4.75;;
34489;SDS011;20730;49.372;7.324;2023-06-26T09:43:49;5.38;;;3.80;;
34489;SDS011;20730;49.372;7.324;2023-06-26T09:46:17;4.72;;;3.88;;
34489;SDS011;20730;49.372;7.324;2023-06-26T09:49:12;6.57;;;4.00;;
34489;SDS011;20730;49.372;7.324;2023-06-26T09:51:39;6.35;;;4.20;;
34489;SDS011;20730;49.372;7.324;2023-06-26T09:54:08;6.10;;;4.50;;
34489;SDS011;20730;49.372;7.324;2023-06-26T09:56:36;10.48;;;4.20;;
34489;SDS011;20730;49.372;7.324;2023-06-26T09:59:04;6.68;;;3.75;;
34489;SDS011;20730;49.372;7.324;2023-06-26T10:01:32;6.85;;;4.10;;
34489;SDS011;20730;49.372;7.324;2023-06-26T10:04:00;5.35;;;4.10;;
34489;SDS011;20730;49.372;7.324;2023-06-26T10:06:33;4.53;;;3.83;;
34489;SDS011;20730;49.372;7.324;2023-06-26T10:09:03;4.85;;;4.15;;
34489;SDS011;20730;49.372;7.324;2023-06-26T10:14:04;5.43;;;3.38;;
34489;SDS011;20730;49.372;7.324;2023-06-26T10:16:43;6.75;;;4.10;;
34489;SDS011;20730;49.372;7.324;2023-06-26T10:19:12;8.85;;;3.95;;
34489;SDS011;20730;49.372;7.324;2023-06-26T10:21:40;7.07;;;4.13;;
34489;SDS011;20730;49.372;7.324;2023-06-26T10:24:08;4.85;;;3.33;;
34489;SDS011;20730;49.372;7.324;2023-06-26T10:26:38;4.18;;;3.30;;
34489;SDS011;20730;49.372;7.324;2023-06-26T10:29:10;4.72;;;3.47;;
34489;SDS011;20730;49.372;7.324;2023-06-26T10:31:39;8.02;;;3.75;;
34489;SDS011;20730;49.372;7.324;2023-06-26T10:34:07;7.03;;;3.10;;
34489;SDS011;20730;49.372;7.324;2023-06-26T10:36:35;5.78;;;3.05;;
34489;SDS011;20730;49.372;7.324;2023-06-26T10:39:04;3.78;;;3.10;;
34489;SDS011;20730;49.372;7.324;2023-06-26T10:41:36;5.35;;;4.00;;
34489;SDS011;20730;49.372;7.324;2023-06-26T10:44:16;7.97;;;3.70;;
34489;SDS011;20730;49.372;7.324;2023-06-26T10:46:53;6.38;;;3.38;;
34489;SDS011;20730;49.372;7.324;2023-06-26T10:49:24;7.18;;;4.15;;
34489;SDS011;20730;49.372;7.324;2023-06-26T10:51:52;7.63;;;3.58;;
34489;SDS011;20730;49.372;7.324;2023-06-26T10:54:21;8.38;;;4.20;;
34489;SDS011;20730;49.372;7.324;2023-06-26T10:56:50;7.72;;;4.10;;
34489;SDS011;20730;49.372;7.324;2023-06-26T10:59:19;6.15;;;4.10;;
34489;SDS011;20730;49.372;7.324;2023-06-26T11:01:58;8.00;;;3.65;;
34489;SDS011;20730;49.372;7.324;2023-06-26T11:04:38;6.32;;;3.67;;
34489;SDS011;20730;49.372;7.324;2023-06-26T11:07:14;4.45;;;3.28;;
34489;SDS011;20730;49.372;7.324;2023-06-26T11:12:36;6.68;;;3.42;;
34489;SDS011;20730;49.372;7.324;2023-06-26T11:15:13;4.10;;;3.10;;
34489;SDS011;20730;49.372;7.324;2023-06-26T11:17:44;7.25;;;3.05;;
34489;SDS011;20730;49.372;7.324;2023-06-26T11:20:13;7.55;;;3.15;;
34489;SDS011;20730;49.372;7.324;2023-06-26T11:22:42;5.65;;;2.80;;
34489;SDS011;20730;49.372;7.324;2023-06-26T11:25:12;5.95;;;2.85;;
34489;SDS011;20730;49.372;7.324;2023-06-26T11:27:41;5.80;;;2.88;;
34489;SDS011;20730;49.372;7.324;2023-06-26T11:30:10;6.63;;;2.50;;
34489;SDS011;20730;49.372;7.324;2023-06-26T11:32:38;9.40;;;2.20;;
34489;SDS011;20730;49.372;7.324;2023-06-26T11:35:06;3.50;;;2.00;;
34489;SDS011;20730;49.372;7.324;2023-06-26T11:37:34;6.25;;;2.28;;
34489;SDS011;20730;49.372;7.324;2023-06-26T11:40:18;3.42;;;1.77;;
34489;SDS011;20730;49.372;7.324;2023-06-26T11:42:46;2.53;;;1.60;;
34489;SDS011;20730;49.372;7.324;2023-06-26T11:45:13;1.63;;;1.38;;
34489;SDS011;20730;49.372;7.324;2023-06-26T11:47:40;4.28;;;1.80;;
34489;SDS011;20730;49.372;7.324;2023-06-26T11:50:14;6.85;;;1.95;;
34489;SDS011;20730;49.372;7.324;2023-06-26T11:52:42;3.05;;;1.42;;
34489;SDS011;20730;49.372;7.324;2023-06-26T11:55:10;3.45;;;1.70;;
34489;SDS011;20730;49.372;7.324;2023-06-26T11:57:38;2.25;;;1.33;;
34489;SDS011;20730;49.372;7.324;2023-06-26T12:00:13;2.78;;;1.38;;
34489;SDS011;20730;49.372;7.324;2023-06-26T12:02:41;8.20;;;1.90;;
34489;SDS011;20730;49.372;7.324;2023-06-26T12:05:09;2.30;;;1.80;;
34489;SDS011;20730;49.372;7.324;2023-06-26T12:07:38;2.30;;;1.60;;
34489;SDS011;20730;49.372;7.324;2023-06-26T12:10:08;7.13;;;1.90;;
34489;SDS011;20730;49.372;7.324;2023-06-26T12:12:37;4.38;;;1.98;;
34489;SDS011;20730;49.372;7.324;2023-06-26T12:15:06;5.18;;;1.98;;
34489;SDS011;20730;49.372;7.324;2023-06-26T12:17:37;4.75;;;1.85;;
34489;SDS011;20730;49.372;7.324;2023-06-26T12:20:17;5.15;;;1.80;;
34489;SDS011;20730;49.372;7.324;2023-06-26T12:22:48;4.88;;;1.88;;
34489;SDS011;20730;49.372;7.324;2023-06-26T12:25:15;4.13;;;2.20;;
34489;SDS011;20730;49.372;7.324;2023-06-26T12:27:44;6.15;;;1.80;;
34489;SDS011;20730;49.372;7.324;2023-06-26T12:30:13;3.83;;;1.70;;
34489;SDS011;20730;49.372;7.324;2023-06-26T12:32:40;3.45;;;1.42;;
34489;SDS011;20730;49.372;7.324;2023-06-26T12:35:11;4.30;;;1.80;;
34489;SDS011;20730;49.372;7.324;2023-06-26T12:37:39;3.17;;;2.38;;
34489;SDS011;20730;49.372;7.324;2023-06-26T12:40:20;5.22;;;1.80;;
34489;SDS011;20730;49.372;7.324;2023-06-26T12:42:50;4.53;;;1.70;;
34489;SDS011;20730;49.372;7.324;2023-06-26T12:45:18;5.28;;;1.90;;
34489;SDS011;20730;49.372;7.324;2023-06-26T12:47:50;5.35;;;2.03;;
34489;SDS011;20730;49.372;7.324;2023-06-26T12:50:17;6.18;;;1.90;;
34489;SDS011;20730;49.372;7.324;2023-06-26T12:52:44;4.15;;;1.98;;
34489;SDS011;20730;49.372;7.324;2023-06-26T12:55:11;4.28;;;2.00;;
34489;SDS011;20730;49.372;7.324;2023-06-26T12:57:38;4.43;;;2.15;;
34489;SDS011;20730;49.372;7.324;2023-06-26T13:00:06;5.53;;;2.55;;
34489;SDS011;20730;49.372;7.324;2023-06-26T13:02:34;10.57;;;2.40;;
34489;SDS011;20730;49.372;7.324;2023-06-26T13:05:03;7.85;;;2.05;;
34489;SDS011;20730;49.372;7.324;2023-06-26T13:07:31;7.63;;;2.00;;
34489;SDS011;20730;49.372;7.324;2023-06-26T13:09:58;4.72;;;1.90;;
34489;SDS011;20730;49.372;7.324;2023-06-26T13:12:26;9.93;;;2.22;;
34489;SDS011;20730;49.372;7.324;2023-06-26T13:14:53;6.40;;;2.00;;
34489;SDS011;20730;49.372;7.324;2023-06-26T13:17:21;4.35;;;1.80;;
34489;SDS011;20730;49.372;7.324;2023-06-26T13:19:48;6.38;;;2.05;;
34489;SDS011;20730;49.372;7.324;2023-06-26T13:22:16;3.35;;;1.90;;
34489;SDS011;20730;49.372;7.324;2023-06-26T13:24:43;8.27;;;2.05;;
34489;SDS011;20730;49.372;7.324;2023-06-26T13:27:10;6.10;;;2.13;;
34489;SDS011;20730;49.372;7.324;2023-06-26T13:29:37;4.47;;;1.73;;
34489;SDS011;20730;49.372;7.324;2023-06-26T13:32:08;3.88;;;1.98;;
34489;SDS011;20730;49.372;7.324;2023-06-26T13:34:35;3.53;;;1.83;;
34489;SDS011;20730;49.372;7.324;2023-06-26T13:37:03;3.72;;;1.95;;
34489;SDS011;20730;49.372;7.324;2023-06-26T13:39:30;5.78;;;1.80;;
34489;SDS011;20730;49.372;7.324;2023-06-26T13:41:57;3.35;;;1.58;;
34489;SDS011;20730;49.372;7.324;2023-06-26T13:44:24;9.77;;;1.60;;
34489;SDS011;20730;49.372;7.324;2023-06-26T13:47:12;3.83;;;1.70;;
34489;SDS011;20730;49.372;7.324;2023-06-26T13:49:43;6.43;;;1.75;;
34489;SDS011;20730;49.372;7.324;2023-06-26T13:52:10;3.38;;;1.48;;
34489;SDS011;20730;49.372;7.324;2023-06-26T13:54:38;4.85;;;1.80;;
34489;SDS011;20730;49.372;7.324;2023-06-26T13:57:06;3.10;;;1.48;;
34489;SDS011;20730;49.372;7.324;2023-06-26T13:59:36;5.68;;;1.38;;
34489;SDS011;20730;49.372;7.324;2023-06-26T14:02:04;7.97;;;1.55;;
34489;SDS011;20730;49.372;7.324;2023-06-26T14:04:33;4.88;;;1.77;;
34489;SDS011;20730;49.372;7.324;2023-06-26T14:07:00;2.60;;;1.30;;
34489;SDS011;20730;49.372;7.324;2023-06-26T14:09:27;5.38;;;1.95;;
34489;SDS011;20730;49.372;7.324;2023-06-26T14:11:55;4.20;;;1.35;;
34489;SDS011;20730;49.372;7.324;2023-06-26T14:14:22;4.88;;;1.80;;
34489;SDS011;20730;49.372;7.324;2023-06-26T14:16:49;7.30;;;1.58;;
34489;SDS011;20730;49.372;7.324;2023-06-26T14:19:17;4.78;;;1.52;;
34489;SDS011;20730;49.372;7.324;2023-06-26T14:21:44;5.35;;;1.50;;
34489;SDS011;20730;49.372;7.324;2023-06-26T14:24:12;3.83;;;1.50;;
34489;SDS011;20730;49.372;7.324;2023-06-26T14:26:39;4.15;;;1.45;;
34489;SDS011;20730;49.372;7.324;2023-06-26T14:29:10;6.53;;;1.30;;
34489;SDS011;20730;49.372;7.324;2023-06-26T14:31:39;4.10;;;1.40;;
34489;SDS011;20730;49.372;7.324;2023-06-26T14:34:06;3.22;;;1.55;;
34489;SDS011;20730;49.372;7.324;2023-06-26T14:36:35;6.00;;;1.50;;
34489;SDS011;20730;49.372;7.324;2023-06-26T14:39:04;3.97;;;1.40;;
34489;SDS011;20730;49.372;7.324;2023-06-26T14:41:31;3.83;;;1.40;;
34489;SDS011;20730;49.372;7.324;2023-06-26T14:43:59;5.25;;;1.40;;
34489;SDS011;20730;49.372;7.324;2023-06-26T14:46:28;3.83;;;1.40;;
34489;SDS011;20730;49.372;7.324;2023-06-26T14:48:56;3.65;;;1.10;;
34489;SDS011;20730;49.372;7.324;2023-06-26T14:51:24;8.23;;;1.30;;
34489;SDS011;20730;49.372;7.324;2023-06-26T14:53:53;4.82;;;1.73;;
34489;SDS011;20730;49.372;7.324;2023-06-26T14:56:20;5.05;;;1.40;;
34489;SDS011;20730;49.372;7.324;2023-06-26T14:58:49;5.72;;;1.20;;
34489;SDS011;20730;49.372;7.324;2023-06-26T15:01:18;2.20;;;1.30;;
34489;SDS011;20730;49.372;7.324;2023-06-26T15:03:46;5.63;;;1.50;;
34489;SDS011;20730;49.372;7.324;2023-06-26T15:06:15;5.68;;;1.60;;
34489;SDS011;20730;49.372;7.324;2023-06-26T15:08:42;4.07;;;1.15;;
34489;SDS011;20730;49.372;7.324;2023-06-26T15:11:10;7.28;;;1.45;;
34489;SDS011;20730;49.372;7.324;2023-06-26T15:13:37;3.97;;;1.20;;